ANZ3 KLAX-NZAA
Flight info
| Callsign | ANZ3 |
|---|---|
| Flight time | N/A |
| Altitude | 28000 |
| Route | SUMMR2 FICKY DCT 30N125W/N0507F300 26N130W 22N135W 18N140W 14N145W/N0507F320 06N150W 00N155W 06S160W 16S165W/N0501F340 23S170W 25S175W DCT INTIB/N0492F360 G457 ELPAK |
| Aircraft | B77W/H-SDE1E2E3FGHIJ2J3J4J5M1RWXY/LB1D1 |
Departure
| Time | 2026-04-23 01:35 |
|---|---|
| Airport | Los Angeles International Airport (KLAX) |
Arrival
| Time | N/A |
|---|---|
| Airport | Auckland International Airport (NZAA) |
| Time | Latitude | Longitude | Altitude | Speed | Heading |
|---|---|---|---|---|---|
| 2026-04-23 01:13 | 33.94483 | -118.41595 | 98 ft | 0 kts | 83° |
| 2026-04-23 01:25 | 33.94482 | -118.41611 | 97 ft | 4 kts | 83° |
| 2026-04-23 01:25 | 33.94479 | -118.41637 | 96 ft | 4 kts | 82° |
| 2026-04-23 01:26 | 33.94472 | -118.41667 | 98 ft | 4 kts | 57° |
| 2026-04-23 01:26 | 33.94455 | -118.41688 | 96 ft | 4 kts | 13° |
| 2026-04-23 01:26 | 33.94430 | -118.41688 | 96 ft | 4 kts | 353° |
| 2026-04-23 01:26 | 33.94408 | -118.41684 | 96 ft | 1 kts | 353° |
| 2026-04-23 01:29 | 33.94422 | -118.41686 | 96 ft | 5 kts | 353° |
| 2026-04-23 01:29 | 33.94464 | -118.41693 | 96 ft | 6 kts | 353° |
| 2026-04-23 01:29 | 33.94509 | -118.41700 | 99 ft | 7 kts | 353° |
| 2026-04-23 01:29 | 33.94566 | -118.41709 | 99 ft | 10 kts | 353° |
| 2026-04-23 01:30 | 33.94632 | -118.41691 | 97 ft | 11 kts | 48° |
| 2026-04-23 01:30 | 33.94659 | -118.41589 | 101 ft | 16 kts | 81° |
| 2026-04-23 01:30 | 33.94674 | -118.41458 | 99 ft | 16 kts | 83° |
| 2026-04-23 01:30 | 33.94686 | -118.41337 | 101 ft | 9 kts | 81° |
| 2026-04-23 01:31 | 33.94728 | -118.41295 | 101 ft | 9 kts | 3° |
| 2026-04-23 01:31 | 33.94782 | -118.41267 | 101 ft | 11 kts | 56° |
| 2026-04-23 01:31 | 33.94808 | -118.41132 | 100 ft | 20 kts | 82° |
| 2026-04-23 01:31 | 33.94826 | -118.40961 | 102 ft | 20 kts | 83° |
| 2026-04-23 01:32 | 33.94843 | -118.40793 | 99 ft | 20 kts | 83° |
| 2026-04-23 01:32 | 33.94861 | -118.40622 | 99 ft | 20 kts | 83° |
| 2026-04-23 01:32 | 33.94878 | -118.40452 | 101 ft | 20 kts | 83° |
| 2026-04-23 01:32 | 33.94896 | -118.40281 | 99 ft | 20 kts | 83° |
| 2026-04-23 01:33 | 33.94913 | -118.40113 | 99 ft | 20 kts | 83° |
| 2026-04-23 01:33 | 33.94939 | -118.39951 | 100 ft | 16 kts | 56° |
| 2026-04-23 01:33 | 33.95024 | -118.39925 | 100 ft | 11 kts | 330° |
| 2026-04-23 01:33 | 33.95037 | -118.39994 | 102 ft | 5 kts | 264° |
| 2026-04-23 01:34 | 33.95036 | -118.40001 | 101 ft | 2 kts | 264° |
| 2026-04-23 01:34 | 33.95021 | -118.40163 | 103 ft | 50 kts | 263° |
| 2026-04-23 01:34 | 33.94942 | -118.40923 | 102 ft | 131 kts | 263° |
| 2026-04-23 01:34 | 33.94790 | -118.42299 | 247 ft | 185 kts | 261° |
| 2026-04-23 01:35 | 33.94612 | -118.43852 | 1103 ft | 185 kts | 264° |
| 2026-04-23 01:35 | 33.94515 | -118.44871 | 1720 ft | 184 kts | 265° |
| 2026-04-23 01:35 | 33.94379 | -118.46338 | 2289 ft | 167 kts | 266° |
| 2026-04-23 01:35 | 33.94298 | -118.48258 | 2542 ft | 182 kts | 269° |
| 2026-04-23 01:36 | 33.94271 | -118.49297 | 2703 ft | 189 kts | 269° |
| 2026-04-23 01:36 | 33.94228 | -118.50922 | 2791 ft | 205 kts | 268° |
| 2026-04-23 01:36 | 33.94106 | -118.52680 | 3005 ft | 216 kts | 265° |
| 2026-04-23 01:36 | 33.93953 | -118.54542 | 3213 ft | 228 kts | 265° |
| 2026-04-23 01:37 | 33.93794 | -118.56491 | 3549 ft | 238 kts | 266° |
| 2026-04-23 01:37 | 33.93633 | -118.58503 | 3999 ft | 245 kts | 266° |
| 2026-04-23 01:37 | 33.93470 | -118.60561 | 4497 ft | 250 kts | 266° |
| 2026-04-23 01:37 | 33.93304 | -118.62666 | 5031 ft | 256 kts | 266° |
| 2026-04-23 01:38 | 33.93132 | -118.64846 | 5443 ft | 265 kts | 266° |
| 2026-04-23 01:38 | 33.92959 | -118.67085 | 5962 ft | 270 kts | 267° |
| 2026-04-23 01:38 | 33.92784 | -118.69330 | 6501 ft | 276 kts | 267° |
| 2026-04-23 01:38 | 33.92604 | -118.71638 | 7100 ft | 277 kts | 266° |
| 2026-04-23 01:39 | 33.92425 | -118.73937 | 7783 ft | 275 kts | 266° |
| 2026-04-23 01:39 | 33.92247 | -118.76224 | 8461 ft | 274 kts | 266° |
| 2026-04-23 01:39 | 33.92068 | -118.78512 | 9152 ft | 273 kts | 266° |
| 2026-04-23 01:39 | 33.91890 | -118.80786 | 9800 ft | 273 kts | 266° |
| 2026-04-23 01:40 | 33.91712 | -118.83061 | 10400 ft | 273 kts | 267° |
| 2026-04-23 01:40 | 33.91666 | -118.85321 | 10844 ft | 277 kts | 273° |
| 2026-04-23 01:40 | 33.91759 | -118.87726 | 10979 ft | 297 kts | 274° |
| 2026-04-23 01:40 | 33.91874 | -118.90281 | 11138 ft | 315 kts | 274° |
| 2026-04-23 01:41 | 33.91979 | -118.92995 | 11298 ft | 334 kts | 274° |
| 2026-04-23 01:41 | 33.92071 | -118.95844 | 11701 ft | 344 kts | 273° |
| 2026-04-23 01:41 | 33.92156 | -118.98718 | 12265 ft | 349 kts | 273° |
| 2026-04-23 01:41 | 33.92092 | -119.01639 | 12861 ft | 352 kts | 262° |
| 2026-04-23 01:42 | 33.91315 | -119.04470 | 13415 ft | 359 kts | 250° |
| 2026-04-23 01:42 | 33.90271 | -119.07229 | 14017 ft | 363 kts | 250° |
| 2026-04-23 01:42 | 33.89236 | -119.10010 | 14668 ft | 364 kts | 250° |
| 2026-04-23 01:42 | 33.88218 | -119.12768 | 15351 ft | 364 kts | 250° |
| 2026-04-23 01:43 | 33.87187 | -119.15578 | 16026 ft | 365 kts | 250° |
| 2026-04-23 01:43 | 33.86175 | -119.18348 | 16655 ft | 367 kts | 250° |
| 2026-04-23 01:43 | 33.85144 | -119.21172 | 17282 ft | 369 kts | 250° |
| 2026-04-23 01:43 | 33.84110 | -119.24009 | 17891 ft | 371 kts | 250° |
| 2026-04-23 01:44 | 33.83065 | -119.26874 | 18503 ft | 373 kts | 250° |
| 2026-04-23 01:44 | 33.82014 | -119.29751 | 19034 ft | 375 kts | 250° |
| 2026-04-23 01:44 | 33.80970 | -119.32590 | 19528 ft | 376 kts | 248° |
| 2026-04-23 01:44 | 33.79560 | -119.35290 | 19872 ft | 389 kts | 233° |
| 2026-04-23 01:45 | 33.77511 | -119.37501 | 20295 ft | 399 kts | 223° |
| 2026-04-23 01:45 | 33.75294 | -119.39539 | 20762 ft | 402 kts | 223° |
| 2026-04-23 01:45 | 33.73069 | -119.41587 | 21239 ft | 404 kts | 223° |
| 2026-04-23 01:45 | 33.70862 | -119.43624 | 21722 ft | 406 kts | 223° |
| 2026-04-23 01:46 | 33.68603 | -119.45719 | 22201 ft | 409 kts | 223° |
| 2026-04-23 01:46 | 33.66369 | -119.47799 | 22655 ft | 411 kts | 223° |
| 2026-04-23 01:46 | 33.64094 | -119.49921 | 23118 ft | 414 kts | 223° |
| 2026-04-23 01:46 | 33.61810 | -119.52054 | 23590 ft | 416 kts | 223° |
| 2026-04-23 01:47 | 33.59502 | -119.54211 | 23957 ft | 419 kts | 223° |
| 2026-04-23 01:47 | 33.57223 | -119.56339 | 24324 ft | 421 kts | 223° |
| 2026-04-23 01:47 | 33.54902 | -119.58506 | 24702 ft | 423 kts | 223° |
| 2026-04-23 01:47 | 33.52569 | -119.60683 | 25082 ft | 425 kts | 223° |
| 2026-04-23 01:48 | 33.50218 | -119.62876 | 25467 ft | 427 kts | 223° |
| 2026-04-23 01:48 | 33.47866 | -119.65068 | 25820 ft | 430 kts | 223° |
| 2026-04-23 01:48 | 33.45529 | -119.67244 | 26166 ft | 432 kts | 223° |
| 2026-04-23 01:48 | 33.43144 | -119.69463 | 26500 ft | 434 kts | 223° |
| 2026-04-23 01:49 | 33.40756 | -119.71683 | 26896 ft | 435 kts | 223° |
| 2026-04-23 01:49 | 33.38352 | -119.73916 | 27243 ft | 436 kts | 224° |
| 2026-04-23 01:49 | 33.35973 | -119.76125 | 27562 ft | 438 kts | 224° |
| 2026-04-23 01:49 | 33.33549 | -119.78375 | 27866 ft | 441 kts | 224° |
| 2026-04-23 01:50 | 33.31112 | -119.80634 | 28165 ft | 443 kts | 224° |
| 2026-04-23 01:50 | 33.28670 | -119.82897 | 28474 ft | 444 kts | 224° |
| 2026-04-23 01:50 | 33.26226 | -119.85159 | 28818 ft | 445 kts | 224° |
| 2026-04-23 01:50 | 33.23773 | -119.87427 | 29116 ft | 446 kts | 224° |
| 2026-04-23 01:51 | 33.21337 | -119.89679 | 29370 ft | 448 kts | 224° |
| 2026-04-23 01:51 | 33.18860 | -119.91968 | 29605 ft | 450 kts | 224° |
| 2026-04-23 01:51 | 33.16373 | -119.94264 | 29866 ft | 452 kts | 224° |
| 2026-04-23 01:51 | 33.13876 | -119.96568 | 30063 ft | 454 kts | 224° |
| 2026-04-23 01:52 | 33.08894 | -120.01157 | 30147 ft | 452 kts | 224° |
| 2026-04-23 01:52 | 33.03932 | -120.05715 | 30164 ft | 447 kts | 224° |
| 2026-04-23 01:53 | 32.99019 | -120.10230 | 30171 ft | 447 kts | 224° |
| 2026-04-23 01:53 | 32.94080 | -120.14763 | 30168 ft | 447 kts | 224° |